Portada
METAR-TAF:

METAR-TAF

Aeroports :

Makassar, South Sulawesi, Indonèsia

latitud: 05-04S, longitud: 119-33E, altitud: 14 m

Observació

L'informe es va fer fa 43 minuts, a les 20:00 UTC
Vent 3 kt del Est
Temperatura 23°C
Humitat 100%
Pressió 1010 hPa
Visibilitat: 8000 m
Escasses núvols a una alçada de 1900 ft

METAR: WAAA 192000Z 08003KT 8000 FEW019 23/23 Q1010 NOSIG

Hora: 03:43 (20:43 UTC)

Pronòstic

L'informe es va fer fa 3 hores i 43 minuts, a les 17:00 UTC
Pronòstic vàlid del 19 a les 18 UTC al 21 a les 00 UTC
Vent 4 kt del Sud/Sud-Est
Visibilitat: 8000 m
Núvols disperses a una alçada de 1900 ft
Temporalment
l' 19 a les 18 UTC al 19 a les 21 UTC
Visibilitat: 6000 m
pluja
Evolucionant progressivament
l' 19 a les 22 UTC al 20 a les 00 UTC
Visibilitat 10 km o més
Evolucionant progressivament
l' 20 a les 02 UTC al 20 a les 04 UTC
Vent 10 kt del Nord-Oest

TAF: WAAA 191700Z 1918/2100 15004KT 8000 SCT019 TEMPO 1918/1921 6000 -RA BECMG 1922/2000 9999 BECMG 2002/2004 31010KT

Observacions i pronòstics meteorològics de més de 4000 aeroports (METAR i TAF).

Les estacions disponibles són els punts grocs i vermells al mapa.

Posi el ratolí al punt desitjat per veure el nom de l'estació.

Feu clic per veure les observacions i els pronòstics meteorològics.

Per canviar el mapa: feu clic els botons verds amb una creu de color negre per apropar; al botó verd amb un guió per allunyar la imatge; o en les fletxes verdes per a mapes adjacents.


METAR-TAF: